sensor_id;sensor_type;location;lat;lon;timestamp;pressure;altitude;pressure_sealevel;temperature;humidity
33191;BME280;19554;42.652;23.364;2023-12-14T00:00:18;93636.59;;;6.94;74.03
33191;BME280;19554;42.652;23.364;2023-12-14T00:02:44;93615.22;;;6.85;73.49
33191;BME280;19554;42.652;23.364;2023-12-14T00:05:10;93642.47;;;6.72;73.85
33191;BME280;19554;42.652;23.364;2023-12-14T00:07:36;93635.22;;;6.59;74.67
33191;BME280;19554;42.652;23.364;2023-12-14T00:10:01;93613.53;;;6.14;77.08
33191;BME280;19554;42.652;23.364;2023-12-14T00:12:28;93627.31;;;6.16;77.65
33191;BME280;19554;42.652;23.364;2023-12-14T00:14:53;93622.03;;;6.35;77.29
33191;BME280;19554;42.652;23.364;2023-12-14T00:17:19;93624.31;;;6.41;76.84
33191;BME280;19554;42.652;23.364;2023-12-14T00:19:44;93637.97;;;6.54;76.11
33191;BME280;19554;42.652;23.364;2023-12-14T00:22:10;93650.91;;;6.55;75.84
33191;BME280;19554;42.652;23.364;2023-12-14T00:24:36;93576.28;;;6.29;75.56
33191;BME280;19554;42.652;23.364;2023-12-14T00:27:01;93640.97;;;6.66;75.27
33191;BME280;19554;42.652;23.364;2023-12-14T00:29:27;93557.78;;;6.24;74.55
33191;BME280;19554;42.652;23.364;2023-12-14T00:31:52;93602.41;;;6.55;74.49
33191;BME280;19554;42.652;23.364;2023-12-14T00:34:18;93633.16;;;6.75;74.07
33191;BME280;19554;42.652;23.364;2023-12-14T00:36:43;93630.41;;;6.80;73.96
33191;BME280;19554;42.652;23.364;2023-12-14T00:39:09;93629.63;;;6.79;73.72
33191;BME280;19554;42.652;23.364;2023-12-14T00:41:34;93538.16;;;6.25;74.02
33191;BME280;19554;42.652;23.364;2023-12-14T00:44:00;93636.69;;;6.70;74.03
33191;BME280;19554;42.652;23.364;2023-12-14T00:46:25;93632.94;;;6.71;74.22
33191;BME280;19554;42.652;23.364;2023-12-14T00:48:51;93654.16;;;6.71;73.58
33191;BME280;19554;42.652;23.364;2023-12-14T00:51:16;93619.53;;;6.62;73.63
33191;BME280;19554;42.652;23.364;2023-12-14T00:53:42;93635.78;;;6.56;74.42
33191;BME280;19554;42.652;23.364;2023-12-14T00:56:08;93634.13;;;6.41;74.20
33191;BME280;19554;42.652;23.364;2023-12-14T00:58:34;93634.34;;;6.45;74.57
33191;BME280;19554;42.652;23.364;2023-12-14T01:00:59;93607.47;;;6.32;74.90
33191;BME280;19554;42.652;23.364;2023-12-14T01:03:25;93616.66;;;6.40;75.52
33191;BME280;19554;42.652;23.364;2023-12-14T01:05:50;93625.03;;;6.28;76.29
33191;BME280;19554;42.652;23.364;2023-12-14T01:08:16;93627.19;;;6.26;75.67
33191;BME280;19554;42.652;23.364;2023-12-14T01:10:41;93623.06;;;6.15;75.35
33191;BME280;19554;42.652;23.364;2023-12-14T01:13:07;93616.19;;;6.14;75.43
33191;BME280;19554;42.652;23.364;2023-12-14T01:15:33;93632.22;;;6.04;75.67
33191;BME280;19554;42.652;23.364;2023-12-14T01:17:58;93609.47;;;5.74;76.37
33191;BME280;19554;42.652;23.364;2023-12-14T01:20:24;93640.22;;;5.99;76.97
33191;BME280;19554;42.652;23.364;2023-12-14T01:22:49;93626.56;;;5.86;76.31
33191;BME280;19554;42.652;23.364;2023-12-14T01:25:15;93612.88;;;5.79;76.87
33191;BME280;19554;42.652;23.364;2023-12-14T01:27:40;93623.22;;;5.76;77.59
33191;BME280;19554;42.652;23.364;2023-12-14T01:30:06;93617.72;;;5.72;78.21
33191;BME280;19554;42.652;23.364;2023-12-14T01:32:33;93619.34;;;5.68;79.04
33191;BME280;19554;42.652;23.364;2023-12-14T01:34:58;93666.59;;;5.80;78.91
33191;BME280;19554;42.652;23.364;2023-12-14T01:37:24;93618.81;;;5.90;78.67
33191;BME280;19554;42.652;23.364;2023-12-14T01:39:49;93637.38;;;5.90;77.54
33191;BME280;19554;42.652;23.364;2023-12-14T01:42:15;93615.44;;;5.84;78.12
33191;BME280;19554;42.652;23.364;2023-12-14T01:44:40;93620.28;;;5.53;79.32
33191;BME280;19554;42.652;23.364;2023-12-14T01:47:06;93605.75;;;5.51;79.60
33191;BME280;19554;42.652;23.364;2023-12-14T01:49:31;93628.97;;;5.59;80.11
33191;BME280;19554;42.652;23.364;2023-12-14T01:51:57;93617.03;;;5.61;79.82
33191;BME280;19554;42.652;23.364;2023-12-14T01:54:22;93601.03;;;5.47;79.00
33191;BME280;19554;42.652;23.364;2023-12-14T01:56:47;93594.47;;;5.64;78.27
33191;BME280;19554;42.652;23.364;2023-12-14T01:59:13;93640.00;;;5.66;78.83
33191;BME280;19554;42.652;23.364;2023-12-14T02:01:43;93622.47;;;5.70;78.82
33191;BME280;19554;42.652;23.364;2023-12-14T02:04:10;93611.72;;;5.61;78.69
33191;BME280;19554;42.652;23.364;2023-12-14T02:06:36;93607.22;;;5.62;78.65
33191;BME280;19554;42.652;23.364;2023-12-14T02:09:02;93627.94;;;5.55;78.96
33191;BME280;19554;42.652;23.364;2023-12-14T02:11:27;93605.16;;;5.54;79.48
33191;BME280;19554;42.652;23.364;2023-12-14T02:13:53;93610.66;;;5.62;79.63
33191;BME280;19554;42.652;23.364;2023-12-14T02:16:18;93615.84;;;5.73;79.58
33191;BME280;19554;42.652;23.364;2023-12-14T02:18:44;93603.38;;;5.73;78.59
33191;BME280;19554;42.652;23.364;2023-12-14T02:21:10;93574.91;;;5.65;78.79
33191;BME280;19554;42.652;23.364;2023-12-14T02:23:35;93587.59;;;5.87;79.14
33191;BME280;19554;42.652;23.364;2023-12-14T02:26:07;93566.44;;;5.63;79.41
33191;BME280;19554;42.652;23.364;2023-12-14T02:28:32;93606.09;;;5.68;80.00
33191;BME280;19554;42.652;23.364;2023-12-14T02:30:58;93531.16;;;5.19;79.83
33191;BME280;19554;42.652;23.364;2023-12-14T02:33:23;93567.09;;;5.50;80.95
33191;BME280;19554;42.652;23.364;2023-12-14T02:35:49;93584.53;;;5.56;80.75
33191;BME280;19554;42.652;23.364;2023-12-14T02:38:14;93549.34;;;5.26;79.91
33191;BME280;19554;42.652;23.364;2023-12-14T02:40:40;93590.78;;;5.65;79.35
33191;BME280;19554;42.652;23.364;2023-12-14T02:43:05;93594.31;;;5.79;79.69
33191;BME280;19554;42.652;23.364;2023-12-14T02:45:30;93485.59;;;5.28;79.27
33191;BME280;19554;42.652;23.364;2023-12-14T02:47:56;93586.75;;;5.97;78.27
33191;BME280;19554;42.652;23.364;2023-12-14T02:50:21;93608.72;;;5.97;78.34
33191;BME280;19554;42.652;23.364;2023-12-14T02:52:47;93612.75;;;5.89;77.77
33191;BME280;19554;42.652;23.364;2023-12-14T02:55:12;93591.56;;;5.89;77.87
33191;BME280;19554;42.652;23.364;2023-12-14T02:57:38;93587.38;;;5.83;78.52
33191;BME280;19554;42.652;23.364;2023-12-14T03:00:04;93581.13;;;5.74;77.83
33191;BME280;19554;42.652;23.364;2023-12-14T03:02:30;93594.63;;;6.02;77.14
33191;BME280;19554;42.652;23.364;2023-12-14T03:04:56;93612.22;;;5.87;77.74
33191;BME280;19554;42.652;23.364;2023-12-14T03:07:21;93597.97;;;5.83;78.22
33191;BME280;19554;42.652;23.364;2023-12-14T03:09:46;93600.06;;;5.86;77.71
33191;BME280;19554;42.652;23.364;2023-12-14T03:12:12;93577.81;;;5.87;78.14
33191;BME280;19554;42.652;23.364;2023-12-14T03:14:37;93581.66;;;6.00;78.13
33191;BME280;19554;42.652;23.364;2023-12-14T03:17:03;93582.06;;;5.88;77.97
33191;BME280;19554;42.652;23.364;2023-12-14T03:19:28;93582.63;;;5.85;78.29
33191;BME280;19554;42.652;23.364;2023-12-14T03:21:54;93485.94;;;5.21;78.34
33191;BME280;19554;42.652;23.364;2023-12-14T03:24:20;93582.00;;;5.93;78.68
33191;BME280;19554;42.652;23.364;2023-12-14T03:26:46;93547.88;;;5.87;78.57
33191;BME280;19554;42.652;23.364;2023-12-14T03:29:11;93522.28;;;5.82;78.61
33191;BME280;19554;42.652;23.364;2023-12-14T03:31:37;93560.69;;;6.04;78.62
33191;BME280;19554;42.652;23.364;2023-12-14T03:34:02;93589.44;;;6.15;78.31
33191;BME280;19554;42.652;23.364;2023-12-14T03:36:28;93566.72;;;6.28;77.72
33191;BME280;19554;42.652;23.364;2023-12-14T03:38:54;93560.63;;;6.28;77.88
33191;BME280;19554;42.652;23.364;2023-12-14T03:41:19;93572.03;;;6.28;77.44
33191;BME280;19554;42.652;23.364;2023-12-14T03:43:45;93490.41;;;5.87;77.49
33191;BME280;19554;42.652;23.364;2023-12-14T03:46:11;93562.56;;;6.22;78.34
33191;BME280;19554;42.652;23.364;2023-12-14T03:48:36;93553.41;;;6.14;78.51
33191;BME280;19554;42.652;23.364;2023-12-14T03:51:05;93564.38;;;6.27;78.48
33191;BME280;19554;42.652;23.364;2023-12-14T03:53:31;93498.41;;;6.06;77.96
33191;BME280;19554;42.652;23.364;2023-12-14T03:56:00;93463.38;;;5.90;77.78
33191;BME280;19554;42.652;23.364;2023-12-14T03:58:25;93459.16;;;5.89;77.27
33191;BME280;19554;42.652;23.364;2023-12-14T04:00:51;93558.56;;;6.44;76.63
33191;BME280;19554;42.652;23.364;2023-12-14T04:03:17;93551.63;;;6.48;76.89
33191;BME280;19554;42.652;23.364;2023-12-14T04:05:43;93552.69;;;6.47;76.75
33191;BME280;19554;42.652;23.364;2023-12-14T04:08:09;93550.13;;;6.41;76.68
33191;BME280;19554;42.652;23.364;2023-12-14T04:10:35;93547.81;;;6.16;78.07
33191;BME280;19554;42.652;23.364;2023-12-14T04:13:00;93571.94;;;6.14;77.95
33191;BME280;19554;42.652;23.364;2023-12-14T04:15:26;93563.72;;;6.16;78.39
33191;BME280;19554;42.652;23.364;2023-12-14T04:17:51;93551.44;;;6.01;78.57
33191;BME280;19554;42.652;23.364;2023-12-14T04:20:17;93558.22;;;5.88;78.27
33191;BME280;19554;42.652;23.364;2023-12-14T04:22:43;93556.19;;;5.80;78.06
33191;BME280;19554;42.652;23.364;2023-12-14T04:25:09;93568.16;;;6.02;78.45
33191;BME280;19554;42.652;23.364;2023-12-14T04:27:35;93576.47;;;6.14;77.84
33191;BME280;19554;42.652;23.364;2023-12-14T04:30:00;93558.34;;;6.02;77.00
33191;BME280;19554;42.652;23.364;2023-12-14T04:32:26;93577.59;;;6.08;78.00
33191;BME280;19554;42.652;23.364;2023-12-14T04:34:52;93539.06;;;5.97;77.64
33191;BME280;19554;42.652;23.364;2023-12-14T04:37:17;93563.50;;;6.12;77.86
33191;BME280;19554;42.652;23.364;2023-12-14T04:39:43;93589.66;;;6.19;77.98
33191;BME280;19554;42.652;23.364;2023-12-14T04:42:08;93518.63;;;5.78;79.06
33191;BME280;19554;42.652;23.364;2023-12-14T04:44:34;93579.44;;;5.83;79.35
33191;BME280;19554;42.652;23.364;2023-12-14T04:46:59;93478.34;;;5.38;79.10
33191;BME280;19554;42.652;23.364;2023-12-14T04:49:25;93555.41;;;6.04;78.23
33191;BME280;19554;42.652;23.364;2023-12-14T04:51:50;93570.22;;;6.05;78.35
33191;BME280;19554;42.652;23.364;2023-12-14T04:54:16;93564.34;;;6.08;78.23
33191;BME280;19554;42.652;23.364;2023-12-14T04:56:41;93527.19;;;5.70;79.36
33191;BME280;19554;42.652;23.364;2023-12-14T04:59:09;93580.53;;;6.06;79.16
33191;BME280;19554;42.652;23.364;2023-12-14T05:01:35;93553.31;;;5.53;79.05
33191;BME280;19554;42.652;23.364;2023-12-14T05:04:00;93586.38;;;5.79;80.01
33191;BME280;19554;42.652;23.364;2023-12-14T05:06:26;93570.84;;;5.97;79.43
33191;BME280;19554;42.652;23.364;2023-12-14T05:08:51;93558.13;;;5.99;79.10
33191;BME280;19554;42.652;23.364;2023-12-14T05:11:17;93550.19;;;6.17;78.55
33191;BME280;19554;42.652;23.364;2023-12-14T05:13:42;93563.09;;;6.43;77.79
33191;BME280;19554;42.652;23.364;2023-12-14T05:16:13;93570.75;;;6.45;78.26
33191;BME280;19554;42.652;23.364;2023-12-14T05:18:38;93551.69;;;6.43;77.76
33191;BME280;19554;42.652;23.364;2023-12-14T05:21:05;93531.94;;;6.16;77.96
33191;BME280;19554;42.652;23.364;2023-12-14T05:23:30;93561.84;;;6.35;77.30
33191;BME280;19554;42.652;23.364;2023-12-14T05:25:56;93553.34;;;6.38;75.78
33191;BME280;19554;42.652;23.364;2023-12-14T05:28:21;93567.81;;;6.46;75.82
33191;BME280;19554;42.652;23.364;2023-12-14T05:30:46;93557.38;;;6.36;75.85
33191;BME280;19554;42.652;23.364;2023-12-14T05:33:12;93554.34;;;6.24;76.50
33191;BME280;19554;42.652;23.364;2023-12-14T05:35:37;93576.69;;;6.36;76.94
33191;BME280;19554;42.652;23.364;2023-12-14T05:38:03;93581.56;;;6.29;77.48
33191;BME280;19554;42.652;23.364;2023-12-14T05:40:28;93583.19;;;6.25;77.41
33191;BME280;19554;42.652;23.364;2023-12-14T05:42:54;93569.03;;;6.35;76.97
33191;BME280;19554;42.652;23.364;2023-12-14T05:45:20;93595.13;;;6.47;76.67
33191;BME280;19554;42.652;23.364;2023-12-14T05:47:45;93589.72;;;6.52;76.26
33191;BME280;19554;42.652;23.364;2023-12-14T05:50:11;93566.59;;;6.38;76.90
33191;BME280;19554;42.652;23.364;2023-12-14T05:52:37;93594.97;;;6.57;76.54
33191;BME280;19554;42.652;23.364;2023-12-14T05:55:04;93542.03;;;6.33;75.86
33191;BME280;19554;42.652;23.364;2023-12-14T05:57:30;93560.72;;;6.41;75.40
33191;BME280;19554;42.652;23.364;2023-12-14T05:59:55;93601.19;;;6.47;75.86
33191;BME280;19554;42.652;23.364;2023-12-14T06:02:22;93560.69;;;6.04;76.52
33191;BME280;19554;42.652;23.364;2023-12-14T06:04:47;93602.69;;;6.34;76.97
33191;BME280;19554;42.652;23.364;2023-12-14T06:07:14;93605.84;;;6.36;75.99
33191;BME280;19554;42.652;23.364;2023-12-14T06:09:40;93589.00;;;6.27;75.52
33191;BME280;19554;42.652;23.364;2023-12-14T06:12:06;93603.50;;;6.11;76.74
33191;BME280;19554;42.652;23.364;2023-12-14T06:14:31;93621.34;;;6.05;77.71
33191;BME280;19554;42.652;23.364;2023-12-14T06:16:58;93609.38;;;6.08;78.12
33191;BME280;19554;42.652;23.364;2023-12-14T06:19:23;93598.84;;;6.03;78.25
33191;BME280;19554;42.652;23.364;2023-12-14T06:21:49;93581.88;;;6.04;77.97
33191;BME280;19554;42.652;23.364;2023-12-14T06:24:14;93606.59;;;6.18;77.96
33191;BME280;19554;42.652;23.364;2023-12-14T06:26:49;93628.50;;;6.48;76.88
33191;BME280;19554;42.652;23.364;2023-12-14T06:29:14;93625.09;;;6.42;77.53
33191;BME280;19554;42.652;23.364;2023-12-14T06:31:40;93590.09;;;6.26;77.34
33191;BME280;19554;42.652;23.364;2023-12-14T06:34:06;93621.84;;;6.50;77.63
33191;BME280;19554;42.652;23.364;2023-12-14T06:36:32;93622.69;;;6.46;78.10
33191;BME280;19554;42.652;23.364;2023-12-14T06:38:59;93642.25;;;6.50;77.63
33191;BME280;19554;42.652;23.364;2023-12-14T06:41:25;93634.34;;;6.45;77.35
33191;BME280;19554;42.652;23.364;2023-12-14T06:43:51;93644.53;;;6.37;77.46
33191;BME280;19554;42.652;23.364;2023-12-14T06:46:17;93649.50;;;6.20;78.14
33191;BME280;19554;42.652;23.364;2023-12-14T06:48:43;93638.34;;;6.23;78.68
33191;BME280;19554;42.652;23.364;2023-12-14T06:51:09;93642.88;;;6.41;78.35
33191;BME280;19554;42.652;23.364;2023-12-14T06:53:34;93645.97;;;6.49;78.14
33191;BME280;19554;42.652;23.364;2023-12-14T06:56:00;93661.88;;;6.49;78.02
33191;BME280;19554;42.652;23.364;2023-12-14T06:58:26;93667.13;;;6.54;78.55
33191;BME280;19554;42.652;23.364;2023-12-14T07:00:51;93649.63;;;6.53;78.58
33191;BME280;19554;42.652;23.364;2023-12-14T07:03:17;93649.56;;;6.58;77.97
33191;BME280;19554;42.652;23.364;2023-12-14T07:05:42;93636.22;;;6.63;77.25
33191;BME280;19554;42.652;23.364;2023-12-14T07:08:08;93656.88;;;6.66;77.38
33191;BME280;19554;42.652;23.364;2023-12-14T07:10:33;93655.72;;;6.53;77.56
33191;BME280;19554;42.652;23.364;2023-12-14T07:12:59;93657.91;;;6.70;78.00
33191;BME280;19554;42.652;23.364;2023-12-14T07:15:24;93640.75;;;6.81;77.37
33191;BME280;19554;42.652;23.364;2023-12-14T07:17:50;93590.81;;;6.51;76.96
33191;BME280;19554;42.652;23.364;2023-12-14T07:20:16;93678.38;;;6.83;77.37
33191;BME280;19554;42.652;23.364;2023-12-14T07:22:41;93654.72;;;6.68;77.74
33191;BME280;19554;42.652;23.364;2023-12-14T07:25:07;93666.63;;;6.89;78.36
33191;BME280;19554;42.652;23.364;2023-12-14T07:27:34;93665.38;;;7.01;78.25
33191;BME280;19554;42.652;23.364;2023-12-14T07:30:00;93675.63;;;7.26;77.39
33191;BME280;19554;42.652;23.364;2023-12-14T07:32:25;93664.28;;;7.40;76.40
33191;BME280;19554;42.652;23.364;2023-12-14T07:34:51;93675.38;;;7.42;76.04
33191;BME280;19554;42.652;23.364;2023-12-14T07:37:17;93682.59;;;7.55;76.34
33191;BME280;19554;42.652;23.364;2023-12-14T07:39:42;93680.28;;;7.67;75.56
33191;BME280;19554;42.652;23.364;2023-12-14T07:42:08;93685.44;;;7.77;75.15
33191;BME280;19554;42.652;23.364;2023-12-14T07:44:34;93679.16;;;7.87;74.68
33191;BME280;19554;42.652;23.364;2023-12-14T07:47:00;93663.00;;;7.83;74.52
33191;BME280;19554;42.652;23.364;2023-12-14T07:49:26;93678.88;;;8.16;73.92
33191;BME280;19554;42.652;23.364;2023-12-14T07:51:51;93676.03;;;8.26;72.95
33191;BME280;19554;42.652;23.364;2023-12-14T07:54:17;93696.13;;;8.46;71.72
33191;BME280;19554;42.652;23.364;2023-12-14T07:56:43;93694.66;;;8.54;72.49
33191;BME280;19554;42.652;23.364;2023-12-14T07:59:09;93686.41;;;8.56;72.36
33191;BME280;19554;42.652;23.364;2023-12-14T08:01:35;93688.66;;;8.62;72.21
33191;BME280;19554;42.652;23.364;2023-12-14T08:04:01;93684.81;;;8.41;72.00
33191;BME280;19554;42.652;23.364;2023-12-14T08:06:27;93684.69;;;8.32;72.94
33191;BME280;19554;42.652;23.364;2023-12-14T08:08:52;93656.97;;;8.38;71.66
33191;BME280;19554;42.652;23.364;2023-12-14T08:11:18;93678.63;;;8.45;71.35
33191;BME280;19554;42.652;23.364;2023-12-14T08:13:43;93673.06;;;8.69;72.30
33191;BME280;19554;42.652;23.364;2023-12-14T08:16:09;93690.41;;;8.81;72.27
33191;BME280;19554;42.652;23.364;2023-12-14T08:18:36;93673.13;;;8.92;71.85
33191;BME280;19554;42.652;23.364;2023-12-14T08:21:02;93696.59;;;8.90;72.73
33191;BME280;19554;42.652;23.364;2023-12-14T08:23:29;93687.41;;;8.96;72.18
33191;BME280;19554;42.652;23.364;2023-12-14T08:25:56;93700.97;;;9.08;70.78
33191;BME280;19554;42.652;23.364;2023-12-14T08:28:24;93692.28;;;9.16;70.34
33191;BME280;19554;42.652;23.364;2023-12-14T08:30:51;93703.72;;;9.17;68.97
33191;BME280;19554;42.652;23.364;2023-12-14T08:33:17;93716.13;;;9.21;68.94
33191;BME280;19554;42.652;23.364;2023-12-14T08:35:42;93619.47;;;8.76;69.45
33191;BME280;19554;42.652;23.364;2023-12-14T08:38:09;93690.84;;;9.33;68.96
33191;BME280;19554;42.652;23.364;2023-12-14T08:40:34;93695.63;;;9.44;67.98
33191;BME280;19554;42.652;23.364;2023-12-14T08:43:00;93681.03;;;9.19;68.70
33191;BME280;19554;42.652;23.364;2023-12-14T08:45:26;93716.63;;;9.46;67.68
33191;BME280;19554;42.652;23.364;2023-12-14T08:47:51;93698.84;;;9.55;68.03
33191;BME280;19554;42.652;23.364;2023-12-14T08:50:17;93696.91;;;9.47;68.16
33191;BME280;19554;42.652;23.364;2023-12-14T08:52:42;93708.03;;;9.49;68.46
33191;BME280;19554;42.652;23.364;2023-12-14T08:55:08;93691.97;;;9.54;68.26
33191;BME280;19554;42.652;23.364;2023-12-14T08:57:34;93710.66;;;9.63;68.25
33191;BME280;19554;42.652;23.364;2023-12-14T09:00:00;93690.66;;;9.74;67.52
33191;BME280;19554;42.652;23.364;2023-12-14T09:02:26;93702.72;;;9.71;68.35
33191;BME280;19554;42.652;23.364;2023-12-14T09:04:51;93709.88;;;9.85;67.87
33191;BME280;19554;42.652;23.364;2023-12-14T09:07:17;93710.06;;;9.97;67.66
33191;BME280;19554;42.652;23.364;2023-12-14T09:09:42;93710.78;;;10.11;66.29
33191;BME280;19554;42.652;23.364;2023-12-14T09:12:09;93701.34;;;10.05;66.01
33191;BME280;19554;42.652;23.364;2023-12-14T09:14:34;93694.69;;;9.94;66.02
33191;BME280;19554;42.652;23.364;2023-12-14T09:17:00;93683.31;;;10.02;66.00
33191;BME280;19554;42.652;23.364;2023-12-14T09:19:26;93673.50;;;10.20;65.77
33191;BME280;19554;42.652;23.364;2023-12-14T09:21:51;93675.75;;;10.27;64.91
33191;BME280;19554;42.652;23.364;2023-12-14T09:24:17;93683.44;;;10.28;65.06
33191;BME280;19554;42.652;23.364;2023-12-14T09:26:43;93686.88;;;10.29;64.92
33191;BME280;19554;42.652;23.364;2023-12-14T09:29:09;93677.81;;;10.38;64.94
33191;BME280;19554;42.652;23.364;2023-12-14T09:31:34;93654.50;;;10.21;64.23
33191;BME280;19554;42.652;23.364;2023-12-14T09:34:00;93675.47;;;10.37;64.25
33191;BME280;19554;42.652;23.364;2023-12-14T09:36:26;93689.75;;;10.41;64.11
33191;BME280;19554;42.652;23.364;2023-12-14T09:38:51;93685.19;;;10.33;64.39
33191;BME280;19554;42.652;23.364;2023-12-14T09:41:17;93689.97;;;10.53;64.52
33191;BME280;19554;42.652;23.364;2023-12-14T09:43:42;93695.03;;;10.63;64.33
33191;BME280;19554;42.652;23.364;2023-12-14T09:46:09;93698.81;;;10.71;63.86
33191;BME280;19554;42.652;23.364;2023-12-14T09:48:35;93694.91;;;10.77;63.66
33191;BME280;19554;42.652;23.364;2023-12-14T09:51:00;93704.44;;;10.70;64.14
33191;BME280;19554;42.652;23.364;2023-12-14T09:53:26;93676.81;;;10.65;63.72
33191;BME280;19554;42.652;23.364;2023-12-14T09:55:51;93683.09;;;10.70;63.61
33191;BME280;19554;42.652;23.364;2023-12-14T09:58:17;93718.78;;;10.82;63.78
33191;BME280;19554;42.652;23.364;2023-12-14T10:00:42;93697.53;;;10.68;63.89
33191;BME280;19554;42.652;23.364;2023-12-14T10:03:23;93715.31;;;10.82;63.51
33191;BME280;19554;42.652;23.364;2023-12-14T10:05:51;93689.84;;;10.67;63.16
33191;BME280;19554;42.652;23.364;2023-12-14T10:08:18;93708.25;;;10.86;63.63
33191;BME280;19554;42.652;23.364;2023-12-14T10:10:46;93693.34;;;10.94;63.29
33191;BME280;19554;42.652;23.364;2023-12-14T10:13:11;93703.72;;;11.04;62.98
33191;BME280;19554;42.652;23.364;2023-12-14T10:15:45;93685.66;;;10.92;62.64
33191;BME280;19554;42.652;23.364;2023-12-14T10:18:17;93710.34;;;10.98;62.54
33191;BME280;19554;42.652;23.364;2023-12-14T10:20:46;93708.44;;;10.98;62.75
33191;BME280;19554;42.652;23.364;2023-12-14T10:23:12;93695.41;;;10.88;63.03
33191;BME280;19554;42.652;23.364;2023-12-14T10:25:38;93719.59;;;11.00;62.79
33191;BME280;19554;42.652;23.364;2023-12-14T10:28:04;93697.91;;;10.93;62.28
33191;BME280;19554;42.652;23.364;2023-12-14T10:30:29;93680.75;;;10.77;62.95
33191;BME280;19554;42.652;23.364;2023-12-14T10:32:56;93711.13;;;10.98;62.56
33191;BME280;19554;42.652;23.364;2023-12-14T10:35:22;93686.91;;;10.86;62.31
33191;BME280;19554;42.652;23.364;2023-12-14T10:37:50;93724.75;;;10.97;62.21
33191;BME280;19554;42.652;23.364;2023-12-14T10:40:16;93684.81;;;10.65;62.40
33191;BME280;19554;42.652;23.364;2023-12-14T10:42:43;93719.25;;;10.93;62.19
33191;BME280;19554;42.652;23.364;2023-12-14T10:45:13;93725.09;;;10.95;62.55
33191;BME280;19554;42.652;23.364;2023-12-14T10:47:45;93736.22;;;10.97;62.55
33191;BME280;19554;42.652;23.364;2023-12-14T10:50:12;93731.22;;;10.96;62.81
33191;BME280;19554;42.652;23.364;2023-12-14T10:52:41;93679.91;;;10.50;63.02
33191;BME280;19554;42.652;23.364;2023-12-14T10:55:12;93753.50;;;10.91;64.28
33191;BME280;19554;42.652;23.364;2023-12-14T10:57:40;93764.94;;;10.83;67.11
33191;BME280;19554;42.652;23.364;2023-12-14T11:00:06;93744.97;;;10.72;67.67
33191;BME280;19554;42.652;23.364;2023-12-14T11:02:40;93765.22;;;10.73;69.08
33191;BME280;19554;42.652;23.364;2023-12-14T11:05:08;93715.94;;;10.39;70.27
33191;BME280;19554;42.652;23.364;2023-12-14T11:07:48;93730.22;;;10.34;71.45
33191;BME280;19554;42.652;23.364;2023-12-14T11:10:15;93741.50;;;10.31;72.41
33191;BME280;19554;42.652;23.364;2023-12-14T11:13:11;93771.06;;;10.43;74.14
33191;BME280;19554;42.652;23.364;2023-12-14T11:15:46;93773.81;;;10.30;74.70
33191;BME280;19554;42.652;23.364;2023-12-14T11:25:43;93809.06;;;10.04;74.17
33191;BME280;19554;42.652;23.364;2023-12-14T11:28:09;93799.81;;;10.02;73.63
33191;BME280;19554;42.652;23.364;2023-12-14T11:30:36;93802.28;;;9.98;73.55
33191;BME280;19554;42.652;23.364;2023-12-14T11:33:02;93811.50;;;9.92;72.88
33191;BME280;19554;42.652;23.364;2023-12-14T11:35:28;93824.28;;;9.81;72.71
33191;BME280;19554;42.652;23.364;2023-12-14T11:37:54;93808.31;;;9.67;72.72
33191;BME280;19554;42.652;23.364;2023-12-14T11:40:22;93822.34;;;9.59;72.57
33191;BME280;19554;42.652;23.364;2023-12-14T11:43:04;93820.41;;;9.51;72.74
33191;BME280;19554;42.652;23.364;2023-12-14T11:45:37;93807.78;;;9.43;72.88
33191;BME280;19554;42.652;23.364;2023-12-14T11:48:07;93803.56;;;9.42;72.27
33191;BME280;19554;42.652;23.364;2023-12-14T11:50:34;93840.25;;;9.45;72.02
33191;BME280;19554;42.652;23.364;2023-12-14T11:53:03;93834.84;;;9.22;71.80
33191;BME280;19554;42.652;23.364;2023-12-14T11:55:30;93861.47;;;9.22;71.86
33191;BME280;19554;42.652;23.364;2023-12-14T11:57:57;93828.16;;;9.11;71.88
33191;BME280;19554;42.652;23.364;2023-12-14T12:00:26;93851.53;;;9.14;71.58
33191;BME280;19554;42.652;23.364;2023-12-14T12:03:15;93862.06;;;9.06;72.21
33191;BME280;19554;42.652;23.364;2023-12-14T12:05:43;93869.66;;;8.98;72.21
33191;BME280;19554;42.652;23.364;2023-12-14T12:08:10;93872.69;;;8.92;72.07
33191;BME280;19554;42.652;23.364;2023-12-14T12:10:40;93877.03;;;8.88;71.96
33191;BME280;19554;42.652;23.364;2023-12-14T12:13:17;93869.56;;;8.90;71.97
33191;BME280;19554;42.652;23.364;2023-12-14T12:15:44;93882.75;;;8.95;71.89
33191;BME280;19554;42.652;23.364;2023-12-14T12:18:11;93879.63;;;8.93;71.95
33191;BME280;19554;42.652;23.364;2023-12-14T12:20:37;93862.97;;;8.87;71.73
33191;BME280;19554;42.652;23.364;2023-12-14T12:23:03;93872.22;;;8.90;71.48
33191;BME280;19554;42.652;23.364;2023-12-14T12:25:32;93885.44;;;8.95;71.19
33191;BME280;19554;42.652;23.364;2023-12-14T12:27:58;93848.88;;;8.87;71.02
33191;BME280;19554;42.652;23.364;2023-12-14T12:30:23;93878.41;;;8.85;71.05
33191;BME280;19554;42.652;23.364;2023-12-14T12:32:50;93869.66;;;8.85;71.16
33191;BME280;19554;42.652;23.364;2023-12-14T12:35:22;93864.22;;;8.76;71.26
33191;BME280;19554;42.652;23.364;2023-12-14T12:37:48;93826.34;;;8.38;71.47
33191;BME280;19554;42.652;23.364;2023-12-14T12:40:19;93853.38;;;8.72;71.13
33191;BME280;19554;42.652;23.364;2023-12-14T12:42:45;93883.31;;;8.64;71.21
33191;BME280;19554;42.652;23.364;2023-12-14T12:45:13;93876.53;;;8.58;71.62
33191;BME280;19554;42.652;23.364;2023-12-14T12:47:39;93852.06;;;8.56;71.69
33191;BME280;19554;42.652;23.364;2023-12-14T12:50:05;93803.31;;;8.14;71.79
33191;BME280;19554;42.652;23.364;2023-12-14T12:52:31;93880.97;;;8.63;72.04
33191;BME280;19554;42.652;23.364;2023-12-14T12:54:56;93795.75;;;8.21;71.83
33191;BME280;19554;42.652;23.364;2023-12-14T12:57:22;93884.97;;;8.60;72.13
33191;BME280;19554;42.652;23.364;2023-12-14T12:59:47;93886.66;;;8.56;72.55